Barston, United Kingdom
Current Conditions -  °F | °C
As of 7:20 PM on Thursday 23 Oct 2014 (Local Time) from EGBB Reporting Station
Broken Clouds Broken Clouds  
Wind Chill: 15°   Ceiling: 2700
Heat Index: 15°   Visibility: 6mi
Dew Point: 13°   Wind: 9mph
Humidity: 88%   Direction: 200°SSW
Pressure: 29.94"   Gusts: NA
Location:  52.42°N, 1.7°W
Report Text: EGBB 231820Z 20008KT 150V250 9999 FEW012 SCT020 BKN027 15/13 Q1014
Loading
Personal Weather Stations






























Interactive Weather Map
Tropical Storm Tracking
New forecast layout! Learn more

10-Day Weather Forecast

Advertisements
Track Severe Weather on mobile